Time;durP1;ratioP1;P1;durP2;ratioP2;P2;SDS_P1;SDS_P2;PMS_P1;PMS_P2;Temp;Humidity;BMP_temperature;BMP_pressure;BME280_temperature;BME280_humidity;BME280_pressure;Samples;Min_cycle;Max_cycle;Signal;HPM_P1;HPM_P2
2022/01/13 00:02:13;;;;;;;513.60;47.63;;;5.40;99.90;;;;;;5080151;28;20542;-78
2022/01/13 00:04:39;;;;;;;594.47;49.43;;;5.40;99.90;;;;;;5044663;28;20032;-78
2022/01/13 00:07:05;;;;;;;488.73;44.50;;;5.40;99.90;;;;;;5055834;28;20044;-78
2022/01/13 00:09:32;;;;;;;526.10;47.03;;;5.30;99.90;;;;;;5055729;28;20059;-78
2022/01/13 00:11:58;;;;;;;518.90;43.23;;;5.30;99.90;;;;;;5058432;28;20489;-78
2022/01/13 00:22:25;;;;;;;500.37;43.30;;;5.30;99.90;;;;;;5077743;28;20405;-78
2022/01/13 00:24:57;;;;;;;442.45;40.80;;;5.30;99.90;;;;;;5074103;28;21001;-78
2022/01/13 00:27:25;;;;;;;404.97;38.90;;;5.30;99.90;;;;;;5068100;28;20448;-78
2022/01/13 00:29:51;;;;;;;425.53;39.27;;;5.30;99.90;;;;;;5047081;28;20131;-78
2022/01/13 00:32:19;;;;;;;460.00;40.13;;;5.30;99.90;;;;;;5085709;28;20131;-78
2022/01/13 00:34:44;;;;;;;443.27;39.87;;;5.30;99.90;;;;;;5059182;28;20066;-78
2022/01/13 00:37:10;;;;;;;422.57;37.63;;;5.30;99.90;;;;;;5083347;28;20040;-78
2022/01/13 00:39:36;;;;;;;353.57;35.17;;;5.30;99.90;;;;;;5094238;28;20044;-78
2022/01/13 00:42:04;;;;;;;415.87;37.47;;;5.30;99.90;;;;;;5084802;28;20107;-78
2022/01/13 00:44:35;;;;;;;335.57;33.97;;;5.30;99.90;;;;;;5041234;28;20460;-78
2022/01/13 00:47:04;;;;;;;267.37;33.20;;;5.30;99.90;;;;;;5078926;28;20051;-76
2022/01/13 00:49:30;;;;;;;372.57;35.93;;;5.30;99.90;;;;;;5060691;28;20036;-76
2022/01/13 00:51:56;;;;;;;296.07;32.93;;;5.30;99.90;;;;;;5080592;28;20043;-78
2022/01/13 00:54:22;;;;;;;304.17;34.97;;;5.30;99.90;;;;;;5062244;28;20082;-77
2022/01/13 00:56:48;;;;;;;325.33;35.33;;;5.30;99.90;;;;;;5079582;28;20047;-79
2022/01/13 00:59:15;;;;;;;331.70;35.47;;;5.30;99.90;;;;;;5078690;28;20048;-77
2022/01/13 01:01:43;;;;;;;348.57;36.30;;;5.30;99.90;;;;;;5062236;28;20055;-79
2022/01/13 01:04:09;;;;;;;311.37;35.03;;;5.30;99.90;;;;;;5078706;28;20516;-78
2022/01/13 01:06:36;;;;;;;339.10;35.90;;;5.30;99.90;;;;;;5060133;28;20039;-79
2022/01/13 01:09:04;;;;;;;287.93;34.93;;;5.30;99.90;;;;;;5080064;28;20127;-78
2022/01/13 01:11:30;;;;;;;322.43;36.27;;;5.30;99.90;;;;;;5067664;28;20054;-78
2022/01/13 01:13:58;;;;;;;326.57;35.60;;;5.30;99.90;;;;;;5089199;28;20052;-77
2022/01/13 01:16:26;;;;;;;315.63;35.93;;;5.30;99.90;;;;;;5052986;28;20057;-78
2022/01/13 01:19:00;;;;;;;277.57;34.57;;;5.30;99.90;;;;;;5077111;28;20048;-79
2022/01/13 01:29:23;;;;;;;316.37;35.97;;;5.30;99.90;;;;;;5062263;28;20594;-78
2022/01/13 01:31:54;;;;;;;282.03;35.60;;;5.30;99.90;;;;;;5059619;28;20413;-77
2022/01/13 01:34:52;;;;;;;279.30;35.07;;;5.30;99.90;;;;;;5042735;28;20052;-78
2022/01/13 01:37:19;;;;;;;240.97;34.47;;;5.30;99.90;;;;;;5052138;28;20048;-78
2022/01/13 01:39:47;;;;;;;287.20;36.93;;;5.30;99.90;;;;;;5074534;28;20475;-78
2022/01/13 01:42:14;;;;;;;301.53;34.57;;;5.30;99.90;;;;;;5065016;28;20039;-77
2022/01/13 01:44:43;;;;;;;334.03;37.00;;;5.30;99.90;;;;;;5064465;28;20046;-78
2022/01/13 01:47:13;;;;;;;251.60;35.70;;;5.40;99.90;;;;;;5058402;28;20071;-78
2022/01/13 01:49:42;;;;;;;303.67;37.60;;;5.40;99.90;;;;;;5076506;28;20052;-78
2022/01/13 01:52:09;;;;;;;333.53;36.27;;;5.40;99.90;;;;;;5051349;28;20072;-79
2022/01/13 01:54:35;;;;;;;464.03;41.73;;;5.40;99.90;;;;;;5059714;28;20071;-78
2022/01/13 01:57:01;;;;;;;343.77;37.47;;;5.40;99.90;;;;;;5061888;28;20421;-78
2022/01/13 01:59:30;;;;;;;450.27;41.40;;;5.40;99.90;;;;;;5082823;28;20093;-78
2022/01/13 02:01:57;;;;;;;287.37;34.03;;;5.40;99.90;;;;;;5062959;28;20040;-77
2022/01/13 02:04:26;;;;;;;243.60;33.30;;;5.40;99.90;;;;;;5058793;28;20044;-79
2022/01/13 02:06:52;;;;;;;302.20;35.60;;;5.40;99.90;;;;;;5051071;28;20040;-77
2022/01/13 02:09:19;;;;;;;395.47;39.77;;;5.40;99.90;;;;;;5075489;28;20408;-78
2022/01/13 02:11:48;;;;;;;342.97;36.43;;;5.40;99.90;;;;;;5086813;28;20135;-78
2022/01/13 02:16:50;;;;;;;282.40;33.80;;;5.40;99.90;;;;;;5064346;28;20551;-78
2022/01/13 02:19:17;;;;;;;266.70;33.03;;;5.30;99.90;;;;;;5056164;28;20039;-78
2022/01/13 02:21:44;;;;;;;251.97;32.07;;;5.40;99.90;;;;;;5053538;28;20047;-78
2022/01/13 02:24:11;;;;;;;213.03;32.30;;;5.30;99.90;;;;;;5084251;28;20056;-78
2022/01/13 02:26:37;;;;;;;238.13;32.97;;;5.30;99.90;;;;;;5056539;28;20429;-78
2022/01/13 02:29:03;;;;;;;220.67;31.33;;;5.40;99.90;;;;;;5049897;28;20047;-77
2022/01/13 02:31:29;;;;;;;198.33;30.50;;;5.30;99.90;;;;;;5060171;28;20040;-78
2022/01/13 02:33:55;;;;;;;263.37;33.87;;;5.30;99.90;;;;;;5066458;28;20048;-78
2022/01/13 02:36:22;;;;;;;217.50;32.53;;;5.30;99.90;;;;;;5057852;28;20531;-78
2022/01/13 02:38:50;;;;;;;191.23;30.07;;;5.30;99.90;;;;;;5071985;28;20048;-78
2022/01/13 02:41:16;;;;;;;225.70;32.07;;;5.30;99.90;;;;;;5063637;28;20048;-77
2022/01/13 02:43:43;;;;;;;209.03;31.90;;;5.40;99.90;;;;;;5061137;28;20050;-78
2022/01/13 02:46:30;;;;;;;240.00;33.10;;;5.40;99.90;;;;;;5078431;28;20040;-78
2022/01/13 02:48:56;;;;;;;246.80;31.97;;;5.40;99.90;;;;;;5062265;28;20447;-78
2022/01/13 02:51:22;;;;;;;227.50;32.43;;;5.40;99.90;;;;;;5056777;28;20055;-78
2022/01/13 02:53:47;;;;;;;249.67;33.90;;;5.40;99.90;;;;;;5058254;28;20470;-77
2022/01/13 02:56:15;;;;;;;190.80;30.73;;;5.40;99.90;;;;;;5079402;28;20051;-78
2022/01/13 02:58:41;;;;;;;177.13;29.23;;;5.40;99.90;;;;;;5084648;28;20044;-79
2022/01/13 03:01:07;;;;;;;203.67;31.70;;;5.30;99.90;;;;;;5066830;28;20072;-77
2022/01/13 03:03:35;;;;;;;221.23;31.67;;;5.30;99.90;;;;;;5068229;28;20074;-78
2022/01/13 03:06:05;;;;;;;197.60;30.00;;;5.30;99.90;;;;;;5079182;28;20563;-78
2022/01/13 03:08:31;;;;;;;177.10;30.07;;;5.30;99.90;;;;;;5065482;28;20433;-77
2022/01/13 03:10:57;;;;;;;203.03;31.67;;;5.30;99.90;;;;;;5065390;28;20050;-79
2022/01/13 03:13:24;;;;;;;203.47;30.43;;;5.30;99.90;;;;;;5063376;28;20036;-78
2022/01/13 03:15:50;;;;;;;208.83;31.50;;;5.30;99.90;;;;;;5066134;28;20078;-78
2022/01/13 03:18:16;;;;;;;196.67;30.03;;;5.30;99.90;;;;;;5049104;28;20497;-77
2022/01/13 03:20:41;;;;;;;267.50;34.70;;;5.30;99.90;;;;;;5081619;28;20048;-78
2022/01/13 03:23:07;;;;;;;245.97;31.67;;;5.30;99.90;;;;;;5052192;28;20119;-78
2022/01/13 03:25:33;;;;;;;281.37;33.20;;;5.30;99.90;;;;;;5074727;28;20040;-78
2022/01/13 03:28:07;;;;;;;202.97;29.03;;;5.30;99.90;;;;;;5080371;28;20394;-78
2022/01/13 03:30:34;;;;;;;169.33;28.20;;;5.30;99.90;;;;;;5049467;28;20382;-78
2022/01/13 03:33:02;;;;;;;225.73;30.27;;;5.30;99.90;;;;;;5081635;28;20505;-77
2022/01/13 03:35:28;;;;;;;241.73;30.30;;;5.30;99.90;;;;;;5081587;28;20032;-78
2022/01/13 03:37:54;;;;;;;245.70;30.70;;;5.30;99.90;;;;;;5055981;28;20048;-78
2022/01/13 03:40:19;;;;;;;206.80;29.83;;;5.30;99.90;;;;;;5072836;28;20040;-79
2022/01/13 03:42:47;;;;;;;201.23;28.80;;;5.30;99.90;;;;;;5041972;28;20501;-78
2022/01/13 03:45:13;;;;;;;163.67;27.87;;;5.30;99.90;;;;;;5072391;28;20063;-78
2022/01/13 03:47:40;;;;;;;257.53;31.77;;;5.30;99.90;;;;;;5084192;28;20092;-77
2022/01/13 03:50:06;;;;;;;217.80;31.57;;;5.30;99.90;;;;;;5060742;28;20051;-78
2022/01/13 03:53:10;;;;;;;193.87;29.77;;;5.30;99.90;;;;;;5065777;28;20044;-78
2022/01/13 03:56:06;;;;;;;230.95;32.28;;;5.30;99.90;;;;;;5034649;28;20079;-77
2022/01/13 03:59:21;;;;;;;324.03;35.83;;;5.30;99.90;;;;;;5015521;28;20048;-77
2022/01/13 04:01:58;;;;;;;217.03;31.77;;;5.30;99.90;;;;;;5065855;28;20417;-77
2022/01/13 04:04:25;;;;;;;261.93;33.40;;;5.30;99.90;;;;;;5075110;28;20082;-77
2022/01/13 04:07:08;;;;;;;244.03;30.27;;;5.30;99.90;;;;;;5064921;28;20049;-77
2022/01/13 04:10:22;;;;;;;243.67;30.30;;;5.30;99.90;;;;;;5056204;28;20073;-77
2022/01/13 04:12:47;;;;;;;272.30;31.33;;;5.30;99.90;;;;;;5057872;28;20052;-77
2022/01/13 04:15:14;;;;;;;217.47;29.57;;;5.30;99.90;;;;;;5065988;28;20508;-77
2022/01/13 04:17:40;;;;;;;266.50;31.57;;;5.30;99.90;;;;;;5069193;28;20093;-78
2022/01/13 04:20:09;;;;;;;243.10;32.03;;;5.30;99.90;;;;;;5080510;28;20471;-77
2022/01/13 04:22:35;;;;;;;232.17;30.13;;;5.30;99.90;;;;;;5079504;28;20035;-77
2022/01/13 04:25:01;;;;;;;319.93;36.47;;;5.30;99.90;;;;;;5077440;28;20070;-78
2022/01/13 04:27:31;;;;;;;351.70;36.30;;;5.30;99.90;;;;;;5038108;28;20138;-78
2022/01/13 04:30:22;;;;;;;266.40;32.53;;;5.30;99.90;;;;;;5075089;28;20497;-78
2022/01/13 04:32:45;;;;;;;332.37;35.10;;;5.30;99.90;;;;;;5067701;28;20662;-78
2022/01/13 04:35:12;;;;;;;307.23;33.67;;;5.30;99.90;;;;;;5065387;28;20071;-79
2022/01/13 04:37:38;;;;;;;343.00;35.37;;;5.20;99.90;;;;;;5094972;28;20051;-78
2022/01/13 04:40:05;;;;;;;250.70;32.13;;;5.20;99.90;;;;;;5049354;28;20035;-77
2022/01/13 04:42:35;;;;;;;259.30;30.57;;;5.20;99.90;;;;;;5048245;28;20512;-78
2022/01/13 04:45:03;;;;;;;249.07;31.63;;;5.20;99.90;;;;;;5057460;28;20048;-77
2022/01/13 04:47:29;;;;;;;256.37;30.03;;;5.20;99.90;;;;;;5058756;28;20089;-78
2022/01/13 04:49:55;;;;;;;275.17;31.80;;;5.20;99.90;;;;;;5083279;28;20047;-77
2022/01/13 04:52:22;;;;;;;300.13;33.43;;;5.20;99.90;;;;;;5064526;28;20040;-77
2022/01/13 04:54:47;;;;;;;230.67;30.53;;;5.20;99.90;;;;;;5055333;28;20058;-78
2022/01/13 04:57:17;;;;;;;205.60;29.27;;;5.20;99.90;;;;;;5056171;28;20138;-78
2022/01/13 04:59:43;;;;;;;210.57;29.60;;;5.20;99.90;;;;;;5081812;28;20057;-77
2022/01/13 05:02:09;;;;;;;263.17;32.53;;;5.20;99.90;;;;;;5059008;28;20044;-78
2022/01/13 05:04:35;;;;;;;268.00;33.00;;;5.20;99.90;;;;;;5059608;28;20048;-77
2022/01/13 05:07:01;;;;;;;270.30;32.30;;;5.20;99.90;;;;;;5063522;28;20479;-77
2022/01/13 05:09:28;;;;;;;256.47;30.97;;;5.20;99.90;;;;;;5052383;28;20040;-77
2022/01/13 05:11:54;;;;;;;255.43;31.07;;;5.20;99.90;;;;;;5087221;28;20055;-78
2022/01/13 05:14:19;;;;;;;271.60;32.63;;;5.20;99.90;;;;;;5083685;28;20048;-77
2022/01/13 05:16:58;;;;;;;233.67;31.30;;;5.10;99.90;;;;;;5059462;28;20036;-76
2022/01/13 05:19:31;;;;;;;241.73;32.23;;;5.10;99.90;;;;;;5058521;28;20122;-79
2022/01/13 05:24:23;;;;;;;228.77;30.50;;;5.10;99.90;;;;;;5083834;28;20044;-78
2022/01/13 05:26:50;;;;;;;268.53;33.10;;;5.10;99.90;;;;;;5061849;28;20072;-77
2022/01/13 05:29:19;;;;;;;262.07;32.77;;;5.10;99.90;;;;;;5069160;28;20503;-78
2022/01/13 05:31:46;;;;;;;272.60;32.97;;;5.10;99.90;;;;;;5039822;28;20048;-77
2022/01/13 05:34:11;;;;;;;224.70;30.70;;;5.10;99.90;;;;;;5082268;28;20040;-77
2022/01/13 05:36:37;;;;;;;233.90;31.23;;;5.10;99.90;;;;;;5066666;28;20435;-78
2022/01/13 05:39:03;;;;;;;237.20;31.03;;;5.10;99.90;;;;;;5057763;28;20928;-78
2022/01/13 05:41:31;;;;;;;256.03;30.97;;;5.10;99.90;;;;;;5084448;28;20040;-79
2022/01/13 05:43:58;;;;;;;244.30;31.47;;;5.10;99.90;;;;;;5077267;28;20040;-78
2022/01/13 05:46:24;;;;;;;256.57;32.30;;;5.10;99.90;;;;;;5083544;28;20505;-78
2022/01/13 05:48:50;;;;;;;253.43;32.43;;;5.10;99.90;;;;;;5058356;28;20105;-78
2022/01/13 05:51:15;;;;;;;258.77;32.93;;;5.10;99.90;;;;;;5048778;28;20698;-78
2022/01/13 05:53:41;;;;;;;242.90;32.13;;;5.10;99.90;;;;;;5058207;28;20131;-78
2022/01/13 05:56:09;;;;;;;213.83;32.40;;;5.10;99.90;;;;;;5066692;28;20036;-78
2022/01/13 05:58:34;;;;;;;218.73;31.23;;;5.10;99.90;;;;;;5088473;28;20442;-78
2022/01/13 06:01:02;;;;;;;168.87;30.97;;;5.10;99.90;;;;;;5075364;28;20067;-78
2022/01/13 06:03:27;;;;;;;213.80;31.90;;;5.10;99.90;;;;;;5043459;28;20044;-78
2022/01/13 06:05:53;;;;;;;203.57;33.00;;;5.10;99.90;;;;;;5066812;28;20135;-77
2022/01/13 06:08:19;;;;;;;235.43;32.53;;;5.10;99.90;;;;;;5039187;28;20060;-76
2022/01/13 06:10:46;;;;;;;248.40;33.47;;;5.10;99.90;;;;;;5050325;28;20101;-76
2022/01/13 06:13:12;;;;;;;310.30;36.33;;;5.10;99.90;;;;;;5055407;28;20451;-77
2022/01/13 06:15:38;;;;;;;209.63;32.33;;;5.10;99.90;;;;;;5062385;28;20081;-78
2022/01/13 06:18:10;;;;;;;222.90;34.13;;;5.10;99.90;;;;;;5072910;28;20059;-77
2022/01/13 06:20:36;;;;;;;251.43;34.43;;;5.10;99.90;;;;;;5069152;28;20043;-78
2022/01/13 06:23:03;;;;;;;267.00;34.80;;;5.10;99.90;;;;;;5057559;28;20490;-78
2022/01/13 06:25:29;;;;;;;248.70;35.27;;;5.10;99.90;;;;;;5065077;28;20119;-77
2022/01/13 06:27:55;;;;;;;220.00;34.13;;;5.10;99.90;;;;;;5077620;28;20569;-77
2022/01/13 06:30:20;;;;;;;185.90;32.50;;;5.10;99.90;;;;;;5039352;28;20051;-78
2022/01/13 06:32:46;;;;;;;195.20;31.87;;;5.10;99.90;;;;;;5039908;28;20075;-78
2022/01/13 06:35:14;;;;;;;197.93;32.33;;;5.10;99.90;;;;;;5041223;28;20044;-78
2022/01/13 06:37:43;;;;;;;167.93;30.40;;;5.10;99.90;;;;;;5062266;28;20101;-77
2022/01/13 06:40:10;;;;;;;191.27;30.97;;;5.10;99.90;;;;;;5055039;28;20090;-78
2022/01/13 06:42:37;;;;;;;202.77;31.43;;;5.10;99.90;;;;;;5048912;28;20494;-77
2022/01/13 06:45:04;;;;;;;182.80;30.07;;;5.10;99.90;;;;;;5020894;28;20068;-78
2022/01/13 06:47:30;;;;;;;196.97;30.43;;;5.10;99.90;;;;;;5041224;28;20044;-77
2022/01/13 06:49:55;;;;;;;161.60;29.10;;;5.10;99.90;;;;;;5048076;28;20040;-76
2022/01/13 06:52:22;;;;;;;153.30;28.37;;;5.10;99.90;;;;;;5066266;28;20044;-78
2022/01/13 06:54:49;;;;;;;193.27;31.77;;;5.10;99.90;;;;;;5066835;28;20055;-76
2022/01/13 06:57:14;;;;;;;226.83;33.77;;;5.10;99.90;;;;;;5068720;28;20059;-78
2022/01/13 06:59:41;;;;;;;230.13;32.67;;;5.10;99.90;;;;;;5049822;28;20082;-78
2022/01/13 07:02:07;;;;;;;182.80;30.97;;;5.10;99.90;;;;;;5063717;28;20170;-76
2022/01/13 07:04:33;;;;;;;202.33;33.13;;;5.10;99.90;;;;;;5063925;28;20122;-77
2022/01/13 07:06:59;;;;;;;269.43;34.53;;;5.10;99.90;;;;;;5051099;28;20040;-78
2022/01/13 07:09:27;;;;;;;206.60;31.03;;;5.10;99.90;;;;;;5032843;28;20059;-75
2022/01/13 07:11:52;;;;;;;244.77;30.00;;;5.20;99.90;;;;;;5048522;28;20063;-78
2022/01/13 07:14:18;;;;;;;258.63;32.07;;;5.10;99.90;;;;;;5051000;28;20102;-77
2022/01/13 07:16:45;;;;;;;229.73;30.23;;;5.10;99.90;;;;;;5051558;28;20028;-78
2022/01/13 07:19:12;;;;;;;250.80;30.00;;;5.10;99.90;;;;;;5051832;28;20056;-78
2022/01/13 07:21:39;;;;;;;244.47;30.67;;;5.10;99.90;;;;;;5052399;28;20048;-78
2022/01/13 07:24:06;;;;;;;216.57;30.57;;;5.10;99.90;;;;;;5068397;28;20511;-78
2022/01/13 07:26:33;;;;;;;260.43;32.43;;;5.10;99.90;;;;;;5051946;28;20044;-79
2022/01/13 07:28:59;;;;;;;196.77;28.33;;;5.10;99.90;;;;;;5066858;28;20090;-77
2022/01/13 07:31:25;;;;;;;293.47;32.73;;;5.10;99.90;;;;;;5064534;28;20067;-78
2022/01/13 07:33:50;;;;;;;198.93;27.53;;;5.10;99.90;;;;;;5037885;28;20127;-79
2022/01/13 07:36:16;;;;;;;211.67;29.90;;;5.10;99.90;;;;;;5053173;28;20040;-76
2022/01/13 07:38:42;;;;;;;266.07;32.00;;;5.10;99.90;;;;;;5053331;28;20451;-78
2022/01/13 07:41:08;;;;;;;242.90;31.03;;;5.10;99.90;;;;;;5055576;28;20056;-78
2022/01/13 07:43:35;;;;;;;211.03;31.50;;;5.10;99.90;;;;;;5053249;28;20119;-78
2022/01/13 07:46:01;;;;;;;213.17;31.47;;;5.10;99.90;;;;;;5053888;28;20113;-77
2022/01/13 07:48:26;;;;;;;187.53;29.03;;;5.10;99.90;;;;;;5051890;28;20098;-76
2022/01/13 07:50:52;;;;;;;206.10;29.50;;;5.10;99.90;;;;;;5053106;28;20062;-78
2022/01/13 07:53:18;;;;;;;237.20;31.47;;;5.10;99.90;;;;;;5050089;28;20051;-78
2022/01/13 07:55:44;;;;;;;197.10;29.90;;;5.10;99.90;;;;;;5051669;28;20135;-77
2022/01/13 07:58:10;;;;;;;210.07;29.27;;;5.10;99.90;;;;;;5070318;28;20448;-78
2022/01/13 08:00:37;;;;;;;254.37;32.80;;;5.10;99.90;;;;;;5052958;28;20556;-79
2022/01/13 08:03:03;;;;;;;217.57;30.07;;;5.10;99.90;;;;;;5072670;28;20723;-78
2022/01/13 08:05:29;;;;;;;214.53;29.70;;;5.20;99.90;;;;;;5053537;28;20047;-80
2022/01/13 08:07:55;;;;;;;206.83;30.07;;;5.20;99.90;;;;;;5068483;28;20044;-78
2022/01/13 08:10:21;;;;;;;224.83;30.80;;;5.20;99.90;;;;;;5069379;28;20071;-79
2022/01/13 08:12:47;;;;;;;195.57;29.50;;;5.20;99.90;;;;;;5069802;28;20578;-75
2022/01/13 08:15:14;;;;;;;197.40;29.73;;;5.20;99.90;;;;;;5067734;28;20048;-79
2022/01/13 08:20:28;;;;;;;212.83;28.60;;;5.20;99.90;;;;;;5065246;28;20055;-77
2022/01/13 08:22:54;;;;;;;207.77;29.77;;;5.20;99.90;;;;;;5070152;28;20158;-78
2022/01/13 08:25:21;;;;;;;198.57;29.13;;;5.20;99.90;;;;;;5068747;28;20122;-79
2022/01/13 08:27:47;;;;;;;212.40;29.43;;;5.20;99.90;;;;;;5049321;28;20048;-76
2022/01/13 08:30:13;;;;;;;194.80;29.00;;;5.20;99.90;;;;;;5038612;28;20050;-76
2022/01/13 08:32:38;;;;;;;242.63;33.03;;;5.20;99.90;;;;;;5036357;28;20082;-79
2022/01/13 08:35:07;;;;;;;170.33;28.33;;;5.20;99.90;;;;;;5049882;28;20047;-79
2022/01/13 08:37:33;;;;;;;193.13;29.67;;;5.30;99.90;;;;;;5071157;28;20058;-77
2022/01/13 08:39:59;;;;;;;200.23;30.73;;;5.30;99.90;;;;;;5048684;28;20691;-77
2022/01/13 08:42:25;;;;;;;200.27;30.27;;;5.20;99.90;;;;;;5053282;28;20563;-79
2022/01/13 08:44:51;;;;;;;174.30;29.20;;;5.30;99.90;;;;;;5068155;28;20040;-79
2022/01/13 08:47:17;;;;;;;201.80;30.07;;;5.30;99.90;;;;;;5055242;28;20056;-76
2022/01/13 08:49:43;;;;;;;199.57;30.47;;;5.30;99.90;;;;;;5064370;28;20088;-77
2022/01/13 08:52:10;;;;;;;209.40;30.50;;;5.30;99.90;;;;;;5054305;28;20083;-78
2022/01/13 08:54:36;;;;;;;222.93;32.07;;;5.30;99.90;;;;;;5073744;28;20044;-80
2022/01/13 08:57:02;;;;;;;186.73;29.93;;;5.30;99.90;;;;;;5056669;28;20036;-76
2022/01/13 08:59:28;;;;;;;184.93;30.27;;;5.40;99.90;;;;;;5056556;28;20048;-77
2022/01/13 09:01:54;;;;;;;191.77;30.43;;;5.40;99.90;;;;;;5056192;28;20040;-79
2022/01/13 09:04:20;;;;;;;179.93;29.97;;;5.40;99.90;;;;;;5055525;28;20093;-78
2022/01/13 09:06:46;;;;;;;197.63;32.07;;;5.40;99.90;;;;;;5072829;28;20052;-78
2022/01/13 09:09:14;;;;;;;196.13;30.87;;;5.40;99.90;;;;;;5073358;28;20566;-78
2022/01/13 09:11:40;;;;;;;192.93;31.03;;;5.40;99.90;;;;;;5055704;28;20090;-77
2022/01/13 09:14:06;;;;;;;225.47;32.27;;;5.40;99.90;;;;;;5038110;28;20055;-77
2022/01/13 09:16:41;;;;;;;192.67;31.37;;;5.50;99.90;;;;;;5050212;28;20035;-77
2022/01/13 09:19:11;;;;;;;198.97;30.87;;;5.50;99.90;;;;;;5054337;28;20401;-78
2022/01/13 09:21:38;;;;;;;196.67;31.00;;;5.50;99.90;;;;;;5057729;28;20048;-79
2022/01/13 09:24:06;;;;;;;196.87;31.00;;;5.50;99.90;;;;;;5059577;28;20050;-76
2022/01/13 09:26:33;;;;;;;206.03;32.93;;;5.50;99.90;;;;;;5057741;28;20032;-79
2022/01/13 09:28:59;;;;;;;197.20;30.13;;;5.50;99.90;;;;;;5068626;28;20071;-77
2022/01/13 09:31:26;;;;;;;183.53;31.73;;;5.50;99.90;;;;;;5071355;28;20572;-78
2022/01/13 09:33:53;;;;;;;230.60;33.53;;;5.60;99.90;;;;;;5059788;28;20039;-76
2022/01/13 09:36:19;;;;;;;192.80;30.97;;;5.60;99.90;;;;;;5070516;28;20518;-78
2022/01/13 09:38:45;;;;;;;185.60;30.97;;;5.60;99.90;;;;;;5055279;28;20436;-78
2022/01/13 09:41:12;;;;;;;211.60;32.13;;;5.60;99.90;;;;;;5079408;28;20032;-79
2022/01/13 09:43:43;;;;;;;205.57;30.87;;;5.70;99.90;;;;;;5038166;28;20051;-79
2022/01/13 09:46:10;;;;;;;183.47;29.97;;;5.70;99.90;;;;;;5070007;28;20185;-78
2022/01/13 09:48:38;;;;;;;175.10;30.17;;;5.70;99.90;;;;;;5073652;28;20048;-76
2022/01/13 09:51:04;;;;;;;210.07;30.93;;;5.70;99.90;;;;;;5039705;28;20044;-78
2022/01/13 09:53:29;;;;;;;207.70;32.43;;;5.70;99.90;;;;;;5057193;28;20526;-79
2022/01/13 09:55:55;;;;;;;189.20;29.37;;;5.80;99.90;;;;;;5074833;28;20048;-77
2022/01/13 09:58:21;;;;;;;194.97;30.83;;;5.80;99.90;;;;;;5070498;28;20058;-77
2022/01/13 10:00:48;;;;;;;240.53;33.00;;;5.80;99.90;;;;;;5035775;28;20525;-79
2022/01/13 10:03:17;;;;;;;181.57;31.07;;;5.80;99.90;;;;;;5071526;28;20044;-78
2022/01/13 10:05:48;;;;;;;219.17;33.07;;;5.80;99.90;;;;;;5053732;28;20047;-78
2022/01/13 10:08:13;;;;;;;202.00;31.27;;;5.80;99.90;;;;;;5053507;28;20040;-77
2022/01/13 10:10:39;;;;;;;194.70;31.20;;;5.90;99.90;;;;;;5058658;28;20086;-78
2022/01/13 10:13:12;;;;;;;195.40;30.87;;;5.90;99.90;;;;;;5051002;28;20063;-78
2022/01/13 10:18:41;;;;;;;177.93;31.07;;;5.90;99.90;;;;;;5054447;28;20129;-77
2022/01/13 10:21:10;;;;;;;211.20;33.70;;;5.90;99.90;;;;;;5049547;28;20068;-78
2022/01/13 10:23:36;;;;;;;173.40;30.20;;;5.90;99.90;;;;;;5072147;28;20067;-77
2022/01/13 10:26:12;;;;;;;200.47;32.67;;;6.00;99.90;;;;;;5055110;28;20119;-78
2022/01/13 10:28:38;;;;;;;153.67;28.50;;;6.00;99.90;;;;;;5050397;28;20533;-77
2022/01/13 10:31:04;;;;;;;196.10;32.60;;;6.00;99.90;;;;;;5054526;28;20119;-77
2022/01/13 10:33:30;;;;;;;165.97;31.77;;;6.10;99.90;;;;;;5052853;28;20112;-77
2022/01/13 10:36:06;;;;;;;171.63;32.10;;;6.10;99.90;;;;;;5071972;28;20036;-77
2022/01/13 10:38:50;;;;;;;203.77;34.43;;;6.10;99.90;;;;;;5057431;28;20062;-75
2022/01/13 10:41:29;;;;;;;159.57;30.47;;;6.20;99.90;;;;;;5054563;28;20047;-77
2022/01/13 10:44:13;;;;;;;187.60;32.47;;;6.20;99.90;;;;;;5077017;28;20071;-77
2022/01/13 10:46:56;;;;;;;160.07;31.73;;;6.20;99.90;;;;;;5076161;28;20052;-77
2022/01/13 10:49:30;;;;;;;180.10;31.47;;;6.30;99.90;;;;;;5067219;28;20048;-76
2022/01/13 10:54:52;;;;;;;161.60;29.63;;;6.20;99.90;;;;;;5079531;27;20379;-76
2022/01/13 10:57:19;;;;;;;151.50;29.10;;;6.20;99.90;;;;;;5053858;28;20041;-76
2022/01/13 10:59:45;;;;;;;164.60;30.80;;;6.20;99.90;;;;;;5057178;28;20408;-76
2022/01/13 11:02:10;;;;;;;148.60;28.73;;;6.20;99.90;;;;;;5035404;28;20052;-78
2022/01/13 11:04:36;;;;;;;143.77;29.80;;;6.20;99.90;;;;;;5038691;28;20040;-76
2022/01/13 11:07:13;;;;;;;168.97;31.03;;;6.30;99.90;;;;;;5031798;28;20557;-76
2022/01/13 11:09:43;;;;;;;140.40;29.53;;;6.30;99.90;;;;;;5050886;28;20463;-76
2022/01/13 11:12:12;;;;;;;132.87;28.93;;;6.30;99.90;;;;;;5057601;28;20040;-77
2022/01/13 11:14:43;;;;;;;116.00;27.43;;;6.30;99.90;;;;;;5028391;28;20069;-78
2022/01/13 11:17:10;;;;;;;130.37;27.90;;;6.40;99.90;;;;;;5052707;28;20115;-78
2022/01/13 11:19:38;;;;;;;134.73;27.17;;;6.40;99.90;;;;;;5034456;28;20049;-77
2022/01/13 11:22:06;;;;;;;117.97;27.57;;;6.40;99.90;;;;;;5036871;28;20131;-77
2022/01/13 11:24:31;;;;;;;139.13;28.87;;;6.40;99.90;;;;;;5050900;28;20045;-75
2022/01/13 11:26:59;;;;;;;118.93;27.13;;;6.40;99.90;;;;;;5036602;28;20067;-78
2022/01/13 11:29:27;;;;;;;109.23;26.87;;;6.40;99.90;;;;;;5045390;28;20123;-77
2022/01/13 11:31:54;;;;;;;115.17;27.93;;;6.40;99.90;;;;;;5042394;28;20049;-78
2022/01/13 11:34:21;;;;;;;114.77;26.47;;;6.40;99.90;;;;;;5063310;28;20921;-77
2022/01/13 11:36:47;;;;;;;131.43;27.77;;;6.40;99.90;;;;;;5043002;28;20499;-77
2022/01/13 11:39:13;;;;;;;108.50;26.90;;;6.40;99.90;;;;;;5036543;28;20041;-77
2022/01/13 11:42:00;;;;;;;102.60;27.23;;;6.40;99.90;;;;;;5034470;28;20057;-78
2022/01/13 11:44:27;;;;;;;112.80;27.47;;;6.40;99.90;;;;;;5054133;28;20044;-77
2022/01/13 11:46:53;;;;;;;116.33;29.13;;;6.40;99.90;;;;;;5043834;28;20139;-77
2022/01/13 11:49:23;;;;;;;97.57;26.03;;;6.40;99.90;;;;;;5056928;28;20473;-77
2022/01/13 11:52:01;;;;;;;116.47;28.20;;;6.40;99.90;;;;;;5068538;28;20055;-77
2022/01/13 11:54:31;;;;;;;121.17;28.20;;;6.40;99.90;;;;;;5028068;28;20137;-76
2022/01/13 11:57:25;;;;;;;123.70;29.03;;;6.40;99.90;;;;;;5054780;28;20041;-77
2022/01/13 12:00:20;;;;;;;134.27;29.63;;;6.40;99.90;;;;;;5006703;28;20041;-76
2022/01/13 12:02:46;;;;;;;125.27;28.87;;;6.40;99.90;;;;;;5036672;28;20053;-77
2022/01/13 12:05:16;;;;;;;140.60;28.43;;;6.40;99.90;;;;;;5028328;28;20045;-77
2022/01/13 12:07:44;;;;;;;154.43;30.23;;;6.40;99.90;;;;;;5034264;28;20044;-77
2022/01/13 12:10:31;;;;;;;143.83;30.93;;;6.40;99.90;;;;;;5026749;28;20052;-77
2022/01/13 12:12:57;;;;;;;159.07;30.07;;;6.40;99.90;;;;;;5037138;28;20037;-77
2022/01/13 12:15:26;;;;;;;150.17;29.97;;;6.40;99.90;;;;;;5036529;28;20084;-77
2022/01/13 12:17:54;;;;;;;136.10;30.43;;;6.50;99.90;;;;;;5040485;28;20049;-78
2022/01/13 12:20:22;;;;;;;142.50;30.97;;;6.40;99.90;;;;;;5029863;28;20042;-76
2022/01/13 12:22:58;;;;;;;128.33;29.40;;;6.40;99.90;;;;;;5034717;28;20061;-76
2022/01/13 12:25:31;;;;;;;157.37;31.73;;;6.40;99.90;;;;;;5041004;28;20041;-73
2022/01/13 12:27:59;;;;;;;151.73;32.43;;;6.40;99.90;;;;;;5019340;28;20056;-74
2022/01/13 12:30:28;;;;;;;157.03;32.23;;;6.40;99.90;;;;;;5044348;28;20171;-76
2022/01/13 12:32:56;;;;;;;144.87;30.77;;;6.40;99.90;;;;;;5041585;28;20072;-76
2022/01/13 12:35:41;;;;;;;171.30;33.07;;;6.40;99.90;;;;;;5023052;28;20099;-76
2022/01/13 12:38:09;;;;;;;164.30;32.93;;;6.40;99.90;;;;;;5014129;28;20128;-77
2022/01/13 12:40:43;;;;;;;164.27;34.13;;;6.40;99.90;;;;;;5017586;28;20057;-77
2022/01/13 12:44:01;;;;;;;151.50;33.83;;;6.40;99.90;;;;;;5019800;28;20033;-77
2022/01/13 12:46:12;;;;;;;171.27;34.10;;;6.40;99.90;;;;;;5037931;28;20181;-78
2022/01/13 12:48:40;;;;;;;154.53;34.73;;;6.40;99.90;;;;;;5038558;28;20064;-78
2022/01/13 12:51:06;;;;;;;201.37;36.43;;;6.40;99.90;;;;;;5037074;28;20048;-76
2022/01/13 12:53:34;;;;;;;168.40;34.33;;;6.50;99.90;;;;;;5016246;28;20041;-77
2022/01/13 12:56:02;;;;;;;154.40;35.77;;;6.50;99.90;;;;;;5056624;28;20056;-76
2022/01/13 12:58:31;;;;;;;192.20;38.27;;;6.50;99.90;;;;;;5037381;28;20045;-77
2022/01/13 13:00:59;;;;;;;182.53;37.17;;;6.50;99.90;;;;;;5023312;28;20105;-75
2022/01/13 13:03:26;;;;;;;159.70;35.27;;;6.50;99.90;;;;;;5037931;28;20048;-77
2022/01/13 13:05:53;;;;;;;164.73;38.23;;;6.50;99.90;;;;;;5034057;28;20517;-78